createdAt,value
2018-10-06T00:00:43.794Z,9.53
2018-10-06T00:03:12.139Z,8.77
2018-10-06T00:05:40.471Z,9.27
2018-10-06T00:08:08.815Z,9.23
2018-10-06T00:10:37.122Z,9.60
2018-10-06T00:13:05.531Z,9.70
2018-10-06T00:15:33.846Z,9.67
2018-10-06T00:18:02.182Z,9.60
2018-10-06T00:20:30.517Z,9.80
2018-10-06T00:22:58.999Z,8.53
2018-10-06T00:25:27.280Z,8.87
2018-10-06T00:27:55.572Z,8.97
2018-10-06T00:30:23.837Z,8.07
2018-10-06T00:32:52.113Z,8.03
2018-10-06T00:35:20.415Z,8.03
2018-10-06T00:37:48.807Z,8.47
2018-10-06T00:40:17.200Z,8.27
2018-10-06T00:42:45.564Z,7.90
2018-10-06T00:45:13.877Z,7.60
2018-10-06T00:47:42.164Z,7.50
2018-10-06T00:50:10.443Z,7.63
2018-10-06T00:52:38.739Z,7.40
2018-10-06T00:55:07.054Z,8.13
2018-10-06T00:57:35.346Z,7.83
2018-10-06T01:00:03.630Z,7.97
2018-10-06T01:02:31.930Z,7.60
2018-10-06T01:05:00.234Z,8.00
2018-10-06T01:07:28.519Z,8.00
2018-10-06T01:09:56.802Z,7.83
2018-10-06T01:12:25.105Z,7.90
2018-10-06T01:14:53.390Z,8.33
2018-10-06T01:17:21.671Z,6.93
2018-10-06T01:19:49.934Z,8.00
2018-10-06T01:22:18.238Z,7.97
2018-10-06T01:24:46.544Z,9.67
2018-10-06T01:27:14.845Z,6.57
2018-10-06T01:29:43.107Z,6.87
2018-10-06T01:32:11.406Z,6.87
2018-10-06T01:34:45.152Z,6.47
2018-10-06T01:37:13.462Z,7.30
2018-10-06T01:39:41.749Z,7.33
2018-10-06T01:42:10.003Z,7.43
2018-10-06T01:44:38.285Z,7.20
2018-10-06T01:47:06.707Z,6.57
2018-10-06T01:49:35.012Z,6.53
2018-10-06T01:52:03.353Z,6.63
2018-10-06T01:54:31.632Z,7.23
2018-10-06T01:56:59.930Z,7.17
2018-10-06T01:59:28.179Z,7.40
2018-10-06T02:01:56.463Z,7.10
2018-10-06T02:04:31.029Z,7.27
2018-10-06T02:06:59.335Z,7.10
2018-10-06T02:09:27.630Z,7.37
2018-10-06T02:11:55.917Z,8.00
2018-10-06T02:14:24.216Z,7.20
2018-10-06T02:16:52.525Z,7.37
2018-10-06T02:19:20.810Z,7.10
2018-10-06T02:21:49.101Z,6.93
2018-10-06T02:24:17.385Z,7.13
2018-10-06T02:26:45.721Z,7.23
2018-10-06T02:29:14.024Z,8.00
2018-10-06T02:31:42.286Z,7.97
2018-10-06T02:34:10.590Z,7.40
2018-10-06T02:36:41.787Z,7.77
2018-10-06T02:39:10.091Z,7.93
2018-10-06T02:41:38.874Z,7.50
2018-10-06T02:44:07.210Z,8.37
2018-10-06T02:46:35.505Z,7.83
2018-10-06T02:49:03.830Z,7.30
2018-10-06T02:51:32.125Z,8.13
2018-10-06T02:54:00.421Z,8.00
2018-10-06T02:56:28.778Z,7.53
2018-10-06T02:58:57.038Z,7.10
2018-10-06T03:01:25.333Z,7.23
2018-10-06T03:03:53.691Z,7.17
2018-10-06T03:06:22.059Z,6.73
2018-10-06T03:08:50.334Z,7.40
2018-10-06T03:11:18.598Z,7.10
2018-10-06T03:13:46.889Z,7.63
2018-10-06T03:16:15.191Z,7.83
2018-10-06T03:18:43.535Z,7.03
2018-10-06T03:21:11.874Z,7.10
2018-10-06T03:23:40.131Z,7.30
2018-10-06T03:26:08.402Z,7.20
2018-10-06T03:28:36.743Z,7.33
2018-10-06T03:31:05.018Z,7.83
2018-10-06T03:33:33.450Z,7.57
2018-10-06T03:36:01.751Z,7.23
2018-10-06T03:38:30.097Z,6.97
2018-10-06T03:40:58.417Z,6.97
2018-10-06T03:43:26.682Z,7.53
2018-10-06T03:45:54.989Z,6.50
2018-10-06T03:48:23.301Z,6.83
2018-10-06T03:50:51.682Z,7.03
2018-10-06T03:53:19.960Z,6.33
2018-10-06T03:58:22.635Z,6.33
2018-10-06T04:00:50.909Z,6.70
2018-10-06T04:03:19.171Z,6.40
2018-10-06T04:05:47.474Z,6.30
2018-10-06T04:08:15.722Z,7.03
2018-10-06T04:10:44.001Z,6.67
2018-10-06T04:13:12.253Z,6.47
2018-10-06T04:15:40.585Z,7.27
2018-10-06T04:18:08.887Z,7.13
2018-10-06T04:20:37.147Z,6.50
2018-10-06T04:23:05.439Z,6.27
2018-10-06T04:25:33.690Z,6.30
2018-10-06T04:28:01.997Z,6.10
2018-10-06T04:30:30.260Z,6.40
2018-10-06T04:32:59.200Z,6.83
2018-10-06T04:35:27.482Z,6.83
2018-10-06T04:37:55.769Z,6.53
2018-10-06T04:40:24.086Z,6.27
2018-10-06T04:42:52.644Z,6.03
2018-10-06T04:45:20.957Z,5.80
2018-10-06T04:47:49.290Z,5.97
2018-10-06T04:50:17.607Z,6.20
2018-10-06T04:52:45.888Z,5.70
2018-10-06T04:55:14.150Z,6.07
2018-10-06T04:57:42.436Z,6.17
2018-10-06T05:00:10.686Z,5.60
2018-10-06T05:02:38.995Z,6.10
2018-10-06T05:05:13.875Z,6.37
2018-10-06T05:07:42.194Z,5.97
2018-10-06T05:10:10.457Z,7.20
2018-10-06T05:12:38.747Z,7.63
2018-10-06T05:15:07.088Z,8.00
2018-10-06T05:17:35.354Z,7.70
2018-10-06T05:20:03.682Z,7.83
2018-10-06T05:22:31.966Z,7.10
2018-10-06T05:25:00.251Z,7.67
2018-10-06T05:27:28.525Z,7.40
2018-10-06T05:29:56.860Z,8.40
2018-10-06T05:32:25.157Z,7.87
2018-10-06T05:34:53.442Z,7.47
2018-10-06T05:37:21.737Z,8.00
2018-10-06T05:39:50.001Z,7.67
2018-10-06T05:42:18.308Z,7.93
2018-10-06T05:44:46.666Z,7.93
2018-10-06T05:47:14.919Z,7.93
2018-10-06T05:49:43.194Z,7.70
2018-10-06T05:52:11.730Z,7.87
2018-10-06T05:54:39.983Z,7.33
2018-10-06T05:57:08.266Z,7.70
2018-10-06T05:59:36.566Z,8.43
2018-10-06T06:02:04.893Z,6.87
2018-10-06T06:04:33.197Z,7.63
2018-10-06T06:07:01.513Z,8.33
2018-10-06T06:09:29.807Z,8.53
2018-10-06T06:11:58.157Z,8.40
2018-10-06T06:14:26.440Z,8.20
2018-10-06T06:16:54.770Z,8.57
2018-10-06T06:19:23.030Z,8.70
2018-10-06T06:21:51.344Z,9.00
2018-10-06T06:24:19.687Z,8.57
2018-10-06T06:27:03.861Z,8.40
2018-10-06T06:29:32.249Z,10.30
2018-10-06T06:32:00.691Z,41.60
2018-10-06T06:34:29.201Z,37.30
2018-10-06T06:36:57.612Z,34.50
2018-10-06T06:39:26.073Z,29.20
2018-10-06T06:41:54.593Z,27.97
2018-10-06T06:44:28.438Z,25.63
2018-10-06T06:47:03.724Z,26.60
2018-10-06T06:49:32.790Z,27.63
2018-10-06T06:52:01.194Z,25.50
2018-10-06T06:54:29.556Z,24.07
2018-10-06T06:56:57.986Z,20.87
2018-10-06T06:59:27.936Z,19.90
2018-10-06T07:01:56.351Z,18.97
2018-10-06T07:04:24.884Z,18.33
2018-10-06T07:06:53.486Z,17.47
2018-10-06T07:09:21.900Z,16.40
2018-10-06T07:11:50.288Z,16.67
2018-10-06T07:14:20.727Z,14.73
2018-10-06T07:16:49.127Z,15.03
2018-10-06T07:19:17.549Z,15.40
2018-10-06T07:21:46.009Z,15.83
2018-10-06T07:24:14.728Z,17.13
2018-10-06T07:26:43.184Z,19.37
2018-10-06T07:29:11.742Z,19.70
2018-10-06T07:31:41.428Z,19.30
2018-10-06T07:34:09.873Z,18.40
2018-10-06T07:36:39.295Z,17.03
2018-10-06T07:39:07.981Z,17.20
2018-10-06T07:41:36.449Z,16.80
2018-10-06T07:44:04.853Z,15.03
2018-10-06T07:46:33.276Z,14.40
2018-10-06T07:49:01.720Z,14.07
2018-10-06T07:51:30.143Z,14.10
2018-10-06T07:53:58.545Z,13.07
2018-10-06T07:56:28.221Z,12.73
2018-10-06T07:58:56.680Z,12.90
2018-10-06T08:01:25.080Z,12.60
2018-10-06T08:03:53.455Z,12.00
2018-10-06T08:06:21.896Z,11.27
2018-10-06T08:08:50.336Z,12.20
2018-10-06T08:11:18.769Z,12.70
2018-10-06T08:13:47.369Z,11.90
2018-10-06T08:16:15.798Z,11.57
2018-10-06T08:18:44.179Z,13.00
2018-10-06T08:21:12.761Z,13.50
2018-10-06T08:23:41.144Z,12.53
2018-10-06T08:26:09.574Z,12.37
2018-10-06T08:28:38.061Z,12.07
2018-10-06T08:31:06.469Z,12.03
2018-10-06T08:33:34.978Z,12.00
2018-10-06T08:36:03.546Z,12.17
2018-10-06T08:38:32.018Z,13.70
2018-10-06T08:41:00.875Z,12.90
2018-10-06T08:43:29.265Z,13.30
2018-10-06T08:45:57.780Z,12.20
2018-10-06T08:48:26.154Z,10.93
2018-10-06T08:50:54.546Z,10.30
2018-10-06T08:53:23.051Z,9.90
2018-10-06T08:55:51.608Z,9.93
2018-10-06T08:58:19.965Z,9.87
2018-10-06T09:00:48.380Z,9.30
2018-10-06T09:03:16.746Z,9.13
2018-10-06T09:05:45.139Z,9.70
2018-10-06T09:08:13.508Z,9.00
2018-10-06T09:10:41.948Z,8.83
2018-10-06T09:13:10.297Z,9.00
2018-10-06T09:15:38.744Z,9.40
2018-10-06T09:18:07.132Z,9.13
2018-10-06T09:20:35.573Z,9.20
2018-10-06T09:23:20.445Z,9.60
2018-10-06T09:25:49.682Z,8.77
2018-10-06T09:28:18.148Z,8.93
2018-10-06T09:30:46.507Z,9.03
2018-10-06T09:33:15.066Z,8.57
2018-10-06T09:35:43.466Z,9.37
2018-10-06T09:38:12.071Z,8.10
2018-10-06T09:40:40.604Z,7.37
2018-10-06T09:43:09.261Z,7.27
2018-10-06T09:45:37.658Z,7.03
2018-10-06T09:48:06.171Z,6.83
2018-10-06T09:50:34.637Z,7.03
2018-10-06T09:53:03.244Z,6.67
2018-10-06T09:55:31.864Z,6.37
2018-10-06T09:58:20.474Z,6.30
2018-10-06T10:01:21.397Z,6.67
2018-10-06T10:06:51.455Z,5.97
2018-10-06T10:09:23.944Z,6.53
2018-10-06T10:12:00.928Z,11.70
2018-10-06T10:14:45.406Z,7.00
2018-10-06T10:17:25.176Z,7.80
2018-10-06T10:20:06.208Z,5.80
2018-10-06T10:22:41.689Z,6.07
2018-10-06T10:25:15.245Z,6.67
2018-10-06T10:27:47.983Z,6.50
2018-10-06T10:30:19.008Z,6.53
2018-10-06T10:32:54.827Z,6.87
2018-10-06T10:35:27.726Z,6.70
2018-10-06T10:37:56.236Z,6.40
2018-10-06T10:40:24.796Z,6.08
2018-10-06T10:42:53.212Z,5.75
2018-10-06T10:45:21.752Z,5.42
2018-10-06T10:47:50.296Z,5.10
2018-10-06T10:50:18.937Z,7.27
2018-10-06T10:52:47.503Z,5.35
2018-10-06T10:55:16.267Z,5.40
2018-10-06T10:57:44.867Z,5.10
2018-10-06T11:00:13.477Z,5.58
2018-10-06T11:02:47.750Z,5.25
2018-10-06T11:05:18.706Z,5.17
2018-10-06T11:07:47.104Z,5.33
2018-10-06T11:10:15.734Z,5.78
2018-10-06T11:12:44.314Z,5.10
2018-10-06T11:15:12.634Z,5.08
2018-10-06T11:17:42.567Z,4.92
2018-10-06T11:20:11.878Z,5.50
2018-10-06T11:22:42.923Z,5.15
2018-10-06T11:25:11.769Z,4.85
2018-10-06T11:27:41.691Z,5.07
2018-10-06T11:30:10.670Z,5.50
2018-10-06T11:32:42.546Z,5.35
2018-10-06T11:35:11.093Z,5.87
2018-10-06T11:37:47.778Z,4.97
2018-10-06T11:40:16.952Z,5.03
2018-10-06T11:42:45.364Z,5.60
2018-10-06T11:45:13.839Z,5.10
2018-10-06T11:47:43.156Z,5.05
2018-10-06T11:50:12.981Z,4.72
2018-10-06T11:52:44.387Z,4.60
2018-10-06T11:55:16.755Z,5.12
2018-10-06T11:57:48.766Z,4.97
2018-10-06T12:00:23.649Z,5.20
2018-10-06T12:03:01.382Z,5.45
2018-10-06T12:05:36.444Z,4.62
2018-10-06T12:08:22.496Z,5.10
2018-10-06T12:19:31.027Z,5.17
2018-10-06T12:22:16.982Z,4.83
2018-10-06T12:24:50.135Z,5.00
2018-10-06T12:27:27.165Z,5.05
2018-10-06T12:30:07.154Z,5.65
2018-10-06T12:32:44.074Z,5.08
2018-10-06T12:35:22.008Z,5.30
2018-10-06T12:37:58.841Z,4.90
2018-10-06T12:40:41.904Z,5.10
2018-10-06T12:43:20.419Z,5.20
2018-10-06T12:46:08.318Z,5.10
2018-10-06T12:48:44.492Z,4.72
2018-10-06T12:51:14.013Z,4.50
2018-10-06T12:53:43.762Z,4.45
2018-10-06T12:56:19.210Z,4.40
2018-10-06T12:58:56.169Z,4.55
2018-10-06T13:01:33.839Z,5.10
2018-10-06T13:04:14.304Z,4.83
2018-10-06T13:06:59.103Z,5.00
2018-10-06T13:09:27.771Z,5.20
2018-10-06T13:11:56.327Z,4.75
2018-10-06T13:14:24.639Z,5.15
2018-10-06T13:16:52.991Z,4.87
2018-10-06T13:19:21.296Z,4.45
2018-10-06T13:21:49.754Z,4.65
2018-10-06T13:24:18.071Z,4.50
2018-10-06T13:26:46.420Z,4.50
2018-10-06T13:29:14.958Z,4.28
2018-10-06T13:31:43.355Z,4.10
2018-10-06T13:34:11.686Z,4.55
2018-10-06T13:36:40.022Z,4.60
2018-10-06T13:39:09.245Z,4.60
2018-10-06T13:41:37.747Z,4.50
2018-10-06T13:44:06.191Z,4.67
2018-10-06T13:46:34.761Z,4.65
2018-10-06T13:49:03.575Z,5.10
2018-10-06T13:51:31.907Z,5.80
2018-10-06T13:54:00.651Z,5.47
2018-10-06T13:56:29.004Z,4.87
2018-10-06T13:58:57.298Z,4.70
2018-10-06T14:01:26.024Z,4.97
2018-10-06T14:03:54.360Z,4.20
2018-10-06T14:06:22.713Z,4.42
2018-10-06T14:08:51.190Z,4.53
2018-10-06T14:11:19.710Z,4.80
2018-10-06T14:13:48.235Z,4.60
2018-10-06T14:16:16.534Z,5.10
2018-10-06T14:18:44.893Z,6.00
2018-10-06T14:21:13.183Z,5.87
2018-10-06T14:23:41.486Z,4.50
2018-10-06T14:26:10.021Z,4.47
2018-10-06T14:28:38.975Z,4.80
2018-10-06T14:31:07.335Z,6.25
2018-10-06T14:33:35.810Z,4.45
2018-10-06T14:39:32.026Z,4.37
2018-10-06T14:42:00.575Z,3.72
2018-10-06T14:44:28.977Z,3.77
2018-10-06T14:46:57.621Z,3.60
2018-10-06T14:49:26.038Z,4.83
2018-10-06T14:51:54.500Z,5.03
2018-10-06T14:54:22.876Z,4.00
2018-10-06T14:56:51.250Z,3.83
2018-10-06T14:59:19.667Z,3.30
2018-10-06T15:01:48.090Z,4.00
2018-10-06T15:04:16.525Z,4.75
2018-10-06T15:06:44.988Z,4.28
2018-10-06T15:09:14.378Z,3.70
2018-10-06T15:11:43.201Z,4.50
2018-10-06T15:14:11.576Z,5.80
2018-10-06T15:16:39.903Z,5.95
2018-10-06T15:19:08.267Z,6.67
2018-10-06T15:21:36.833Z,7.10
2018-10-06T15:24:05.221Z,11.68
2018-10-06T15:26:33.661Z,10.85
2018-10-06T15:29:02.022Z,16.05
2018-10-06T15:31:30.473Z,14.33
2018-10-06T15:33:58.991Z,13.90
2018-10-06T15:36:27.404Z,11.83
2018-10-06T15:38:55.787Z,6.03
2018-10-06T15:41:24.121Z,4.72
2018-10-06T15:43:52.530Z,5.10
2018-10-06T15:46:20.861Z,4.10
2018-10-06T15:48:49.432Z,4.40
2018-10-06T15:51:18.079Z,3.83
2018-10-06T15:53:46.450Z,3.92
2018-10-06T15:56:14.866Z,4.25
2018-10-06T15:58:43.502Z,4.00
2018-10-06T16:01:11.888Z,3.90
2018-10-06T16:03:40.341Z,4.37
2018-10-06T16:06:08.742Z,3.62
2018-10-06T16:08:37.140Z,3.62
2018-10-06T16:11:05.710Z,3.70
2018-10-06T16:13:34.060Z,3.55
2018-10-06T16:16:02.418Z,3.45
2018-10-06T16:18:30.799Z,3.62
2018-10-06T16:20:59.145Z,3.67
2018-10-06T16:23:27.716Z,3.37
2018-10-06T16:25:56.240Z,3.60
2018-10-06T16:28:24.612Z,3.62
2018-10-06T16:30:52.945Z,3.10
2018-10-06T16:33:21.339Z,3.87
2018-10-06T16:35:49.734Z,3.60
2018-10-06T16:38:18.209Z,4.22
2018-10-06T16:40:46.589Z,3.83
2018-10-06T16:43:15.184Z,3.80
2018-10-06T16:45:43.564Z,3.60
2018-10-06T16:48:11.997Z,3.52
2018-10-06T16:53:43.148Z,3.45
2018-10-06T17:01:10.594Z,3.67
2018-10-06T17:03:39.076Z,3.80
2018-10-06T17:06:07.518Z,3.70
2018-10-06T17:08:35.922Z,3.55
2018-10-06T17:11:04.828Z,3.85
2018-10-06T17:13:33.197Z,3.70
2018-10-06T17:16:01.642Z,3.85
2018-10-06T17:18:30.122Z,3.73
2018-10-06T17:20:58.469Z,4.03
2018-10-06T17:23:27.116Z,3.87
2018-10-06T17:25:55.499Z,4.10
2018-10-06T17:28:24.109Z,4.10
2018-10-06T17:30:52.624Z,3.83
2018-10-06T17:33:21.056Z,3.50
2018-10-06T17:35:49.643Z,4.00
2018-10-06T17:38:18.064Z,3.90
2018-10-06T17:40:46.435Z,4.17
2018-10-06T17:43:14.888Z,4.00
2018-10-06T17:45:43.604Z,4.10
2018-10-06T17:48:12.080Z,4.10
2018-10-06T17:50:40.779Z,4.60
2018-10-06T17:53:09.020Z,4.30
2018-10-06T17:55:37.455Z,4.30
2018-10-06T17:58:06.274Z,4.13
2018-10-06T18:00:34.671Z,4.33
2018-10-06T18:03:03.043Z,4.30
2018-10-06T18:05:31.428Z,4.30
2018-10-06T18:07:59.782Z,4.90
2018-10-06T18:10:28.179Z,4.80
2018-10-06T18:12:57.278Z,4.43
2018-10-06T18:15:27.084Z,4.57
2018-10-06T18:17:55.560Z,4.07
2018-10-06T18:20:24.833Z,4.40
2018-10-06T18:22:53.162Z,4.03
2018-10-06T18:25:21.629Z,4.23
2018-10-06T18:27:50.269Z,4.13
2018-10-06T18:30:18.855Z,4.63
2018-10-06T18:32:47.877Z,4.17
2018-10-06T18:35:16.318Z,4.60
2018-10-06T18:37:45.344Z,4.70
2018-10-06T18:40:13.839Z,4.33
2018-10-06T18:42:42.260Z,4.50
2018-10-06T18:45:10.645Z,4.60
2018-10-06T18:47:39.285Z,4.50
2018-10-06T18:50:08.387Z,5.07
2018-10-06T18:52:36.711Z,4.50
2018-10-06T18:55:05.055Z,4.87
2018-10-06T18:57:33.624Z,5.10
2018-10-06T19:00:02.450Z,4.53
2018-10-06T19:02:30.985Z,4.67
2018-10-06T19:04:59.306Z,4.77
2018-10-06T19:07:27.766Z,4.60
2018-10-06T19:09:56.136Z,5.00
2018-10-06T19:12:24.766Z,4.70
2018-10-06T19:14:53.146Z,4.77
2018-10-06T19:17:21.593Z,4.43
2018-10-06T19:19:50.002Z,5.07
2018-10-06T19:22:18.360Z,4.60
2018-10-06T19:24:47.066Z,4.93
2018-10-06T19:27:15.585Z,4.83
2018-10-06T19:29:44.184Z,4.67
2018-10-06T19:32:12.630Z,5.07
2018-10-06T19:34:41.000Z,5.83
2018-10-06T19:37:10.179Z,5.67
2018-10-06T19:39:38.606Z,6.50
2018-10-06T19:42:07.326Z,6.17
2018-10-06T19:44:35.650Z,6.90
2018-10-06T19:47:04.091Z,5.83
2018-10-06T19:49:32.565Z,5.63
2018-10-06T19:52:01.066Z,5.50
2018-10-06T19:54:30.670Z,5.20
2018-10-06T19:56:59.108Z,5.00
2018-10-06T19:59:27.687Z,5.60
2018-10-06T20:01:56.104Z,5.30
2018-10-06T20:04:24.530Z,4.83
2018-10-06T20:06:52.919Z,4.70
2018-10-06T20:09:21.516Z,4.80
2018-10-06T20:11:50.325Z,5.20
2018-10-06T20:14:19.309Z,5.30
2018-10-06T20:16:47.767Z,5.57
2018-10-06T20:19:16.227Z,5.40
2018-10-06T20:21:44.551Z,5.07
2018-10-06T20:24:13.087Z,4.87
2018-10-06T20:26:41.646Z,5.03
2018-10-06T20:29:10.109Z,4.80
2018-10-06T20:31:38.595Z,5.13
2018-10-06T20:34:07.014Z,5.13
2018-10-06T20:36:35.373Z,5.33
2018-10-06T20:39:04.915Z,5.17
2018-10-06T20:41:33.296Z,5.00
2018-10-06T20:44:01.889Z,5.23
2018-10-06T20:46:30.295Z,5.33
2018-10-06T20:48:58.644Z,5.20
2018-10-06T20:51:26.980Z,4.90
2018-10-06T20:53:55.370Z,5.27
2018-10-06T20:56:23.719Z,5.20
2018-10-06T20:58:52.186Z,5.60
2018-10-06T21:01:20.547Z,5.20
2018-10-06T21:03:48.951Z,5.60
2018-10-06T21:06:17.319Z,6.03
2018-10-06T21:08:45.713Z,5.27
2018-10-06T21:11:14.062Z,5.80
2018-10-06T21:13:42.481Z,5.93
2018-10-06T21:16:10.850Z,5.70
2018-10-06T21:18:39.200Z,5.60
2018-10-06T21:21:07.573Z,5.80
2018-10-06T21:23:36.145Z,6.03
2018-10-06T21:26:04.545Z,6.63
2018-10-06T21:28:32.957Z,6.10
2018-10-06T21:31:01.298Z,6.33
2018-10-06T21:33:29.651Z,6.27
2018-10-06T21:35:58.182Z,6.70
2018-10-06T21:38:26.614Z,6.50
2018-10-06T21:40:54.936Z,6.30
2018-10-06T21:43:23.263Z,6.63
2018-10-06T21:45:51.578Z,7.10
2018-10-06T21:48:20.011Z,6.63
2018-10-06T21:50:48.594Z,6.77
2018-10-06T21:53:16.891Z,6.60
2018-10-06T21:55:45.207Z,7.00
2018-10-06T21:58:13.708Z,5.97
2018-10-06T22:00:42.059Z,6.90
2018-10-06T22:03:10.385Z,6.20
2018-10-06T22:05:38.707Z,6.37
2018-10-06T22:08:07.395Z,6.37
2018-10-06T22:10:35.736Z,6.83
2018-10-06T22:13:04.080Z,6.40
2018-10-06T22:15:32.412Z,6.53
2018-10-06T22:18:00.734Z,6.43
2018-10-06T22:20:29.052Z,6.73
2018-10-06T22:22:57.406Z,6.47
2018-10-06T22:25:25.748Z,6.30
2018-10-06T22:27:54.108Z,6.77
2018-10-06T22:30:22.464Z,6.67
2018-10-06T22:32:50.803Z,6.80
2018-10-06T22:35:19.162Z,6.40
2018-10-06T22:37:47.480Z,6.60
2018-10-06T22:40:15.866Z,6.50
2018-10-06T22:42:44.211Z,6.77
2018-10-06T22:45:12.539Z,6.40
2018-10-06T22:47:41.003Z,6.20
2018-10-06T22:50:09.359Z,7.00
2018-10-06T22:52:37.671Z,8.93
2018-10-06T22:55:06.215Z,7.43
2018-10-06T22:57:34.543Z,30.07
2018-10-06T23:00:02.899Z,12.50
2018-10-06T23:02:31.276Z,9.23
2018-10-06T23:04:59.809Z,8.03
2018-10-06T23:07:28.212Z,9.77
2018-10-06T23:09:56.560Z,8.37
2018-10-06T23:12:24.891Z,7.87
2018-10-06T23:14:53.287Z,7.73
2018-10-06T23:17:21.611Z,8.60
2018-10-06T23:19:49.968Z,8.03
2018-10-06T23:22:18.297Z,7.07
2018-10-06T23:24:46.698Z,7.30
2018-10-06T23:27:15.058Z,8.00
2018-10-06T23:29:43.384Z,7.17
2018-10-06T23:32:11.796Z,7.40
2018-10-06T23:34:40.208Z,6.57
2018-10-06T23:37:08.527Z,7.33
2018-10-06T23:39:36.855Z,6.67
2018-10-06T23:42:05.194Z,6.70
2018-10-06T23:44:33.542Z,7.43
2018-10-06T23:47:02.100Z,7.00
2018-10-06T23:49:30.646Z,7.73
2018-10-06T23:51:59.076Z,7.70
2018-10-06T23:54:27.445Z,9.00
2018-10-06T23:56:55.842Z,9.33
2018-10-06T23:59:24.376Z,9.20
